DLH9WE EDDM-LDDU
Flight info
| Callsign | DLH9WE |
|---|---|
| Flight time | N/A |
| Altitude | 33000 |
| Route | VAVOR3E VAVOR M867 RADIZ DCT GIMIX/N0446F370 DCT ALIVO DCT SIPAL |
| Aircraft | A321/M-SDE2E3FGIJ1LORWXYZ/HB1 |
Departure
| Time | N/A |
|---|---|
| Airport | Munich Airport (EDDM) |
Arrival
| Time | 2026-05-06 16:25 |
|---|---|
| Airport | Dubrovnik Ruđer Bošković Airport (LDDU) |
| Time | Latitude | Longitude | Altitude | Speed | Heading |
|---|---|---|---|---|---|
| 2026-05-06 16:11 | 42.93115 | 17.28066 | 11147 ft | 322 kts | 38° |
| 2026-05-06 16:11 | 42.94680 | 17.30140 | 10972 ft | 309 kts | 52° |
| 2026-05-06 16:11 | 42.95808 | 17.32582 | 10670 ft | 302 kts | 66° |
| 2026-05-06 16:12 | 42.96477 | 17.35264 | 10264 ft | 297 kts | 79° |
| 2026-05-06 16:12 | 42.96671 | 17.38056 | 9861 ft | 294 kts | 93° |
| 2026-05-06 16:12 | 42.96399 | 17.40803 | 9450 ft | 291 kts | 106° |
| 2026-05-06 16:12 | 42.95690 | 17.43363 | 9047 ft | 287 kts | 119° |
| 2026-05-06 16:13 | 42.94614 | 17.45629 | 8641 ft | 283 kts | 129° |
| 2026-05-06 16:13 | 42.93431 | 17.47771 | 8228 ft | 282 kts | 128° |
| 2026-05-06 16:13 | 42.92257 | 17.49904 | 7830 ft | 280 kts | 128° |
| 2026-05-06 16:13 | 42.91093 | 17.52022 | 7545 ft | 278 kts | 128° |
| 2026-05-06 16:14 | 42.89931 | 17.54130 | 7306 ft | 278 kts | 128° |
| 2026-05-06 16:14 | 42.88773 | 17.56233 | 7056 ft | 277 kts | 128° |
| 2026-05-06 16:14 | 42.87625 | 17.58329 | 6793 ft | 276 kts | 128° |
| 2026-05-06 16:14 | 42.86484 | 17.60406 | 6542 ft | 273 kts | 128° |
| 2026-05-06 16:15 | 42.85343 | 17.62472 | 6290 ft | 272 kts | 128° |
| 2026-05-06 16:15 | 42.84208 | 17.64530 | 6040 ft | 271 kts | 128° |
| 2026-05-06 16:15 | 42.83076 | 17.66575 | 5788 ft | 269 kts | 128° |
| 2026-05-06 16:15 | 42.81948 | 17.68608 | 5538 ft | 269 kts | 128° |
| 2026-05-06 16:16 | 42.80822 | 17.70634 | 5286 ft | 268 kts | 128° |
| 2026-05-06 16:16 | 42.79702 | 17.72649 | 5072 ft | 266 kts | 128° |
| 2026-05-06 16:16 | 42.78585 | 17.74661 | 4999 ft | 267 kts | 128° |
| 2026-05-06 16:16 | 42.77465 | 17.76683 | 5004 ft | 268 kts | 128° |
| 2026-05-06 16:17 | 42.76342 | 17.78704 | 5005 ft | 267 kts | 128° |
| 2026-05-06 16:17 | 42.75233 | 17.80697 | 5006 ft | 268 kts | 128° |
| 2026-05-06 16:17 | 42.74110 | 17.82716 | 5007 ft | 268 kts | 128° |
| 2026-05-06 16:17 | 42.72992 | 17.84728 | 4799 ft | 265 kts | 128° |
| 2026-05-06 16:18 | 42.71927 | 17.86770 | 4414 ft | 264 kts | 123° |
| 2026-05-06 16:18 | 42.71029 | 17.88942 | 4061 ft | 262 kts | 118° |
| 2026-05-06 16:18 | 42.70190 | 17.91126 | 3811 ft | 258 kts | 118° |
| 2026-05-06 16:18 | 42.69349 | 17.93293 | 3817 ft | 261 kts | 119° |
| 2026-05-06 16:19 | 42.68513 | 17.95425 | 3821 ft | 248 kts | 119° |
| 2026-05-06 16:19 | 42.67726 | 17.97430 | 3811 ft | 234 kts | 119° |
| 2026-05-06 16:19 | 42.66967 | 17.99365 | 3807 ft | 231 kts | 119° |
| 2026-05-06 16:19 | 42.66224 | 18.01256 | 3830 ft | 217 kts | 119° |
| 2026-05-06 16:20 | 42.65540 | 18.03000 | 3826 ft | 204 kts | 119° |
| 2026-05-06 16:20 | 42.64874 | 18.04696 | 3739 ft | 203 kts | 119° |
| 2026-05-06 16:20 | 42.64221 | 18.06354 | 3523 ft | 195 kts | 119° |
| 2026-05-06 16:20 | 42.63596 | 18.07939 | 3291 ft | 185 kts | 119° |
| 2026-05-06 16:21 | 42.63001 | 18.09448 | 3056 ft | 178 kts | 119° |
| 2026-05-06 16:21 | 42.62429 | 18.10898 | 2833 ft | 170 kts | 119° |
| 2026-05-06 16:21 | 42.61877 | 18.12298 | 2584 ft | 166 kts | 119° |
| 2026-05-06 16:21 | 42.61342 | 18.13657 | 2366 ft | 161 kts | 119° |
| 2026-05-06 16:22 | 42.60831 | 18.14951 | 2164 ft | 150 kts | 120° |
| 2026-05-06 16:22 | 42.60348 | 18.16172 | 1969 ft | 144 kts | 119° |
| 2026-05-06 16:22 | 42.59880 | 18.17361 | 1772 ft | 139 kts | 119° |
| 2026-05-06 16:22 | 42.59430 | 18.18500 | 1590 ft | 135 kts | 119° |
| 2026-05-06 16:23 | 42.58986 | 18.19619 | 1414 ft | 134 kts | 119° |
| 2026-05-06 16:23 | 42.58549 | 18.20726 | 1253 ft | 134 kts | 119° |
| 2026-05-06 16:23 | 42.58110 | 18.21837 | 1068 ft | 133 kts | 120° |
| 2026-05-06 16:23 | 42.57669 | 18.22953 | 904 ft | 135 kts | 119° |
| 2026-05-06 16:24 | 42.57232 | 18.24065 | 690 ft | 133 kts | 120° |
| 2026-05-06 16:24 | 42.56797 | 18.25155 | 545 ft | 130 kts | 118° |
| 2026-05-06 16:24 | 42.56424 | 18.26102 | 534 ft | 93 kts | 118° |
| 2026-05-06 16:24 | 42.56196 | 18.26674 | 534 ft | 54 kts | 118° |
| 2026-05-06 16:25 | 42.56026 | 18.27103 | 534 ft | 46 kts | 118° |
| 2026-05-06 16:25 | 42.55950 | 18.27285 | 532 ft | 14 kts | 133° |
| 2026-05-06 16:25 | 42.55853 | 18.27334 | 533 ft | 16 kts | 173° |
| 2026-05-06 16:25 | 42.55792 | 18.27337 | 534 ft | 8 kts | 194° |
| 2026-05-06 16:26 | 42.55773 | 18.27279 | 534 ft | 8 kts | 281° |
| 2026-05-06 16:26 | 42.55800 | 18.27198 | 534 ft | 10 kts | 297° |
| 2026-05-06 16:26 | 42.55837 | 18.27103 | 534 ft | 13 kts | 298° |
| 2026-05-06 16:26 | 42.55883 | 18.26987 | 534 ft | 15 kts | 298° |
| 2026-05-06 16:27 | 42.55936 | 18.26853 | 534 ft | 17 kts | 298° |
| 2026-05-06 16:27 | 42.55996 | 18.26701 | 534 ft | 19 kts | 298° |
| 2026-05-06 16:27 | 42.56063 | 18.26530 | 534 ft | 21 kts | 298° |
| 2026-05-06 16:27 | 42.56124 | 18.26376 | 534 ft | 13 kts | 298° |
| 2026-05-06 16:28 | 42.56117 | 18.26322 | 534 ft | 7 kts | 220° |
| 2026-05-06 16:28 | 42.56095 | 18.26306 | 534 ft | 2 kts | 205° |
| 2026-05-06 16:28 | 42.56087 | 18.26301 | 534 ft | 2 kts | 206° |